sensor_id;sensor_type;location;lat;lon;timestamp;pressure;altitude;pressure_sealevel;temperature;humidity
24752;BME280;27246;52.376;4.628;2022-07-21T00:03:18;101616.47;;;21.48;74.07
24752;BME280;27246;52.376;4.628;2022-07-21T00:08:20;101596.84;;;21.48;74.31
24752;BME280;27246;52.376;4.628;2022-07-21T00:13:22;101585.66;;;21.48;74.64
24752;BME280;27246;52.376;4.628;2022-07-21T00:18:27;101577.22;;;21.60;74.19
24752;BME280;27246;52.376;4.628;2022-07-21T00:23:29;101579.69;;;21.56;74.14
24752;BME280;27246;52.376;4.628;2022-07-21T00:28:31;101575.66;;;21.52;74.62
24752;BME280;27246;52.376;4.628;2022-07-21T00:33:33;101581.34;;;21.46;75.11
24752;BME280;27246;52.376;4.628;2022-07-21T00:38:35;101577.84;;;21.50;75.11
24752;BME280;27246;52.376;4.628;2022-07-21T00:43:44;101574.31;;;21.55;74.74
24752;BME280;27246;52.376;4.628;2022-07-21T00:48:46;101575.84;;;21.39;75.51
24752;BME280;27246;52.376;4.628;2022-07-21T00:53:48;101568.50;;;21.26;76.03
24752;BME280;27246;52.376;4.628;2022-07-21T00:58:50;101566.38;;;21.22;76.15
24752;BME280;27246;52.376;4.628;2022-07-21T01:03:52;101578.00;;;21.25;76.11
24752;BME280;27246;52.376;4.628;2022-07-21T01:08:54;101574.72;;;21.28;75.76
24752;BME280;27246;52.376;4.628;2022-07-21T01:14:00;101568.94;;;21.23;75.52
24752;BME280;27246;52.376;4.628;2022-07-21T01:19:02;101574.88;;;21.15;75.49
24752;BME280;27246;52.376;4.628;2022-07-21T01:24:10;101565.75;;;21.20;75.05
24752;BME280;27246;52.376;4.628;2022-07-21T01:29:12;101568.22;;;21.16;74.26
24752;BME280;27246;52.376;4.628;2022-07-21T01:34:14;101567.31;;;21.15;73.81
24752;BME280;27246;52.376;4.628;2022-07-21T01:39:16;101565.06;;;20.94;74.40
24752;BME280;27246;52.376;4.628;2022-07-21T01:44:37;101559.88;;;20.79;75.01
24752;BME280;27246;52.376;4.628;2022-07-21T01:49:40;101555.50;;;20.83;74.62
24752;BME280;27246;52.376;4.628;2022-07-21T01:54:41;101547.72;;;20.85;74.69
24752;BME280;27246;52.376;4.628;2022-07-21T01:59:43;101545.81;;;20.97;74.21
24752;BME280;27246;52.376;4.628;2022-07-21T02:04:49;101541.56;;;20.95;74.35
24752;BME280;27246;52.376;4.628;2022-07-21T02:09:51;101537.41;;;20.97;73.85
24752;BME280;27246;52.376;4.628;2022-07-21T02:14:53;101534.53;;;21.04;73.66
24752;BME280;27246;52.376;4.628;2022-07-21T02:19:54;101535.25;;;20.69;75.11
24752;BME280;27246;52.376;4.628;2022-07-21T02:24:56;101533.28;;;20.70;75.73
24752;BME280;27246;52.376;4.628;2022-07-21T02:29:58;101533.00;;;20.60;76.36
24752;BME280;27246;52.376;4.628;2022-07-21T02:35:00;101527.69;;;20.70;76.96
24752;BME280;27246;52.376;4.628;2022-07-21T02:40:02;101527.00;;;20.56;77.62
24752;BME280;27246;52.376;4.628;2022-07-21T02:45:06;101524.03;;;20.51;78.55
24752;BME280;27246;52.376;4.628;2022-07-21T02:50:08;101514.56;;;20.52;78.34
24752;BME280;27246;52.376;4.628;2022-07-21T02:55:10;101522.03;;;20.40;78.80
24752;BME280;27246;52.376;4.628;2022-07-21T03:00:13;101521.34;;;20.44;79.58
24752;BME280;27246;52.376;4.628;2022-07-21T03:05:14;101506.22;;;20.27;79.98
24752;BME280;27246;52.376;4.628;2022-07-21T03:10:16;101511.69;;;20.22;81.26
24752;BME280;27246;52.376;4.628;2022-07-21T03:15:17;101497.59;;;20.28;81.40
24752;BME280;27246;52.376;4.628;2022-07-21T03:20:24;101502.81;;;20.25;81.91
24752;BME280;27246;52.376;4.628;2022-07-21T03:25:26;101509.63;;;20.29;81.70
24752;BME280;27246;52.376;4.628;2022-07-21T03:30:29;101513.06;;;20.12;82.39
24752;BME280;27246;52.376;4.628;2022-07-21T03:35:33;101512.13;;;20.18;82.70
24752;BME280;27246;52.376;4.628;2022-07-21T03:40:38;101506.53;;;20.18;82.68
24752;BME280;27246;52.376;4.628;2022-07-21T03:45:40;101517.72;;;20.00;83.12
24752;BME280;27246;52.376;4.628;2022-07-21T03:50:42;101516.16;;;20.04;83.63
24752;BME280;27246;52.376;4.628;2022-07-21T03:55:44;101516.34;;;20.09;83.80
24752;BME280;27246;52.376;4.628;2022-07-21T04:00:47;101510.03;;;19.95;83.63
24752;BME280;27246;52.376;4.628;2022-07-21T04:05:49;101515.88;;;20.12;83.68
24752;BME280;27246;52.376;4.628;2022-07-21T04:10:51;101508.56;;;20.11;83.03
24752;BME280;27246;52.376;4.628;2022-07-21T04:15:52;101512.06;;;20.07;83.04
24752;BME280;27246;52.376;4.628;2022-07-21T04:20:54;101507.94;;;20.09;83.91
24752;BME280;27246;52.376;4.628;2022-07-21T04:25:56;101512.00;;;20.13;82.93
24752;BME280;27246;52.376;4.628;2022-07-21T04:30:57;101518.03;;;19.92;85.37
24752;BME280;27246;52.376;4.628;2022-07-21T04:35:59;101516.63;;;19.83;86.72
24752;BME280;27246;52.376;4.628;2022-07-21T04:41:01;101517.53;;;19.76;87.66
24752;BME280;27246;52.376;4.628;2022-07-21T04:46:04;101518.13;;;20.04;87.73
24752;BME280;27246;52.376;4.628;2022-07-21T04:51:15;101518.19;;;19.97;87.32
24752;BME280;27246;52.376;4.628;2022-07-21T04:56:17;101518.94;;;19.86;88.17
24752;BME280;27246;52.376;4.628;2022-07-21T05:01:18;101515.13;;;19.80;89.17
24752;BME280;27246;52.376;4.628;2022-07-21T05:06:20;101515.03;;;19.68;90.21
24752;BME280;27246;52.376;4.628;2022-07-21T05:11:27;101520.88;;;19.67;90.49
24752;BME280;27246;52.376;4.628;2022-07-21T05:16:29;101510.53;;;19.67;90.79
24752;BME280;27246;52.376;4.628;2022-07-21T05:21:30;101505.47;;;19.76;91.56
24752;BME280;27246;52.376;4.628;2022-07-21T05:26:34;101511.69;;;19.78;91.06
24752;BME280;27246;52.376;4.628;2022-07-21T05:31:36;101508.69;;;19.80;92.09
24752;BME280;27246;52.376;4.628;2022-07-21T05:36:37;101504.63;;;19.75;91.53
24752;BME280;27246;52.376;4.628;2022-07-21T05:41:39;101505.44;;;19.83;92.21
24752;BME280;27246;52.376;4.628;2022-07-21T05:46:42;101496.34;;;19.87;92.08
24752;BME280;27246;52.376;4.628;2022-07-21T05:51:43;101493.78;;;19.86;93.06
24752;BME280;27246;52.376;4.628;2022-07-21T05:56:45;101500.09;;;20.00;93.37
24752;BME280;27246;52.376;4.628;2022-07-21T06:01:47;101496.75;;;20.09;94.68
24752;BME280;27246;52.376;4.628;2022-07-21T06:06:48;101505.84;;;20.05;94.00
24752;BME280;27246;52.376;4.628;2022-07-21T06:11:50;101513.84;;;20.01;93.41
24752;BME280;27246;52.376;4.628;2022-07-21T06:16:52;101509.50;;;20.05;93.27
24752;BME280;27246;52.376;4.628;2022-07-21T06:21:54;101511.19;;;20.06;93.62
24752;BME280;27246;52.376;4.628;2022-07-21T06:26:55;101517.72;;;20.00;92.70
24752;BME280;27246;52.376;4.628;2022-07-21T06:32:05;101520.28;;;20.02;92.33
24752;BME280;27246;52.376;4.628;2022-07-21T06:37:07;101513.38;;;20.04;94.01
24752;BME280;27246;52.376;4.628;2022-07-21T06:42:09;101520.06;;;20.03;94.52
24752;BME280;27246;52.376;4.628;2022-07-21T06:47:11;101515.22;;;19.92;93.32
24752;BME280;27246;52.376;4.628;2022-07-21T06:52:12;101521.03;;;19.90;93.45
24752;BME280;27246;52.376;4.628;2022-07-21T06:57:14;101525.09;;;19.94;94.17
24752;BME280;27246;52.376;4.628;2022-07-21T07:02:16;101525.16;;;19.88;93.90
24752;BME280;27246;52.376;4.628;2022-07-21T07:07:18;101533.69;;;19.74;92.55
24752;BME280;27246;52.376;4.628;2022-07-21T07:12:19;101537.34;;;19.75;92.73
24752;BME280;27246;52.376;4.628;2022-07-21T07:17:41;101540.53;;;19.78;92.67
24752;BME280;27246;52.376;4.628;2022-07-21T07:22:43;101530.53;;;19.64;91.80
24752;BME280;27246;52.376;4.628;2022-07-21T07:27:49;101539.94;;;19.70;92.22
24752;BME280;27246;52.376;4.628;2022-07-21T07:32:51;101532.69;;;19.62;91.95
24752;BME280;27246;52.376;4.628;2022-07-21T07:37:52;101540.88;;;19.64;91.76
24752;BME280;27246;52.376;4.628;2022-07-21T07:42:54;101541.56;;;19.59;92.20
24752;BME280;27246;52.376;4.628;2022-07-21T07:47:56;101554.25;;;19.55;92.15
24752;BME280;27246;52.376;4.628;2022-07-21T07:53:23;101546.78;;;19.49;93.46
24752;BME280;27246;52.376;4.628;2022-07-21T07:58:26;101555.84;;;19.44;91.98
24752;BME280;27246;52.376;4.628;2022-07-21T08:03:27;101553.09;;;19.37;91.97
24752;BME280;27246;52.376;4.628;2022-07-21T08:08:30;101560.41;;;19.38;91.44
24752;BME280;27246;52.376;4.628;2022-07-21T08:13:32;101562.16;;;19.33;91.24
24752;BME280;27246;52.376;4.628;2022-07-21T08:18:34;101581.75;;;19.26;91.43
24752;BME280;27246;52.376;4.628;2022-07-21T08:23:36;101591.03;;;19.20;90.75
24752;BME280;27246;52.376;4.628;2022-07-21T08:28:38;101577.28;;;19.18;90.47
24752;BME280;27246;52.376;4.628;2022-07-21T08:33:40;101581.50;;;19.34;91.59
24752;BME280;27246;52.376;4.628;2022-07-21T08:38:41;101587.50;;;19.31;91.06
24752;BME280;27246;52.376;4.628;2022-07-21T08:43:43;101585.00;;;19.23;91.44
24752;BME280;27246;52.376;4.628;2022-07-21T08:48:45;101601.38;;;19.13;91.08
24752;BME280;27246;52.376;4.628;2022-07-21T08:53:47;101600.06;;;19.15;91.71
24752;BME280;27246;52.376;4.628;2022-07-21T08:58:49;101605.00;;;19.20;91.31
24752;BME280;27246;52.376;4.628;2022-07-21T09:03:52;101608.69;;;19.14;91.85
24752;BME280;27246;52.376;4.628;2022-07-21T09:08:54;101606.78;;;19.08;90.86
24752;BME280;27246;52.376;4.628;2022-07-21T09:14:09;101607.59;;;19.15;92.96
24752;BME280;27246;52.376;4.628;2022-07-21T09:24:26;101606.59;;;19.03;91.28
24752;BME280;27246;52.376;4.628;2022-07-21T09:34:43;101608.75;;;19.01;92.33
24752;BME280;27246;52.376;4.628;2022-07-21T09:39:55;101615.81;;;19.10;93.04
24752;BME280;27246;52.376;4.628;2022-07-21T09:45:01;101614.13;;;19.02;93.02
24752;BME280;27246;52.376;4.628;2022-07-21T09:50:04;101613.91;;;19.04;93.21
24752;BME280;27246;52.376;4.628;2022-07-21T09:55:26;101612.88;;;18.91;92.76
24752;BME280;27246;52.376;4.628;2022-07-21T10:00:30;101616.94;;;18.95;94.43
24752;BME280;27246;52.376;4.628;2022-07-21T10:05:31;101622.03;;;19.12;94.79
24752;BME280;27246;52.376;4.628;2022-07-21T10:10:33;101620.28;;;19.11;95.03
24752;BME280;27246;52.376;4.628;2022-07-21T10:15:56;101626.25;;;19.21;96.82
24752;BME280;27246;52.376;4.628;2022-07-21T10:21:23;101632.56;;;19.10;94.57
24752;BME280;27246;52.376;4.628;2022-07-21T10:26:27;101623.56;;;19.08;94.60
24752;BME280;27246;52.376;4.628;2022-07-21T10:31:29;101636.00;;;19.12;94.81
24752;BME280;27246;52.376;4.628;2022-07-21T10:41:41;101632.03;;;19.26;94.35
24752;BME280;27246;52.376;4.628;2022-07-21T10:46:58;101630.53;;;19.24;94.72
24752;BME280;27246;52.376;4.628;2022-07-21T10:52:01;101629.72;;;19.16;93.94
24752;BME280;27246;52.376;4.628;2022-07-21T10:57:44;101637.81;;;19.31;95.57
24752;BME280;27246;52.376;4.628;2022-07-21T11:02:48;101638.16;;;19.42;96.36
24752;BME280;27246;52.376;4.628;2022-07-21T11:13:12;101639.69;;;19.37;94.85
24752;BME280;27246;52.376;4.628;2022-07-21T11:18:18;101637.38;;;19.34;96.13
24752;BME280;27246;52.376;4.628;2022-07-21T11:23:20;101643.75;;;19.42;95.94
24752;BME280;27246;52.376;4.628;2022-07-21T11:28:21;101639.78;;;19.24;95.66
24752;BME280;27246;52.376;4.628;2022-07-21T11:33:25;101645.75;;;19.34;96.08
24752;BME280;27246;52.376;4.628;2022-07-21T11:38:26;101649.44;;;19.28;95.34
24752;BME280;27246;52.376;4.628;2022-07-21T11:43:40;101648.06;;;19.37;95.87
24752;BME280;27246;52.376;4.628;2022-07-21T11:48:42;101652.78;;;19.44;96.83
24752;BME280;27246;52.376;4.628;2022-07-21T11:53:44;101651.06;;;19.43;97.48
24752;BME280;27246;52.376;4.628;2022-07-21T11:58:48;101652.41;;;19.33;96.49
24752;BME280;27246;52.376;4.628;2022-07-21T12:03:50;101647.66;;;19.41;96.84
24752;BME280;27246;52.376;4.628;2022-07-21T12:08:53;101653.19;;;19.47;97.66
24752;BME280;27246;52.376;4.628;2022-07-21T12:13:56;101663.03;;;19.50;97.72
24752;BME280;27246;52.376;4.628;2022-07-21T12:19:14;101654.50;;;19.45;96.68
24752;BME280;27246;52.376;4.628;2022-07-21T12:24:18;101663.03;;;19.56;97.44
24752;BME280;27246;52.376;4.628;2022-07-21T12:29:27;101660.84;;;19.65;97.10
24752;BME280;27246;52.376;4.628;2022-07-21T12:34:29;101665.13;;;19.68;95.60
24752;BME280;27246;52.376;4.628;2022-07-21T12:39:31;101671.53;;;19.75;97.61
24752;BME280;27246;52.376;4.628;2022-07-21T12:44:51;101680.19;;;19.67;94.88
24752;BME280;27246;52.376;4.628;2022-07-21T12:50:02;101674.59;;;19.67;94.07
24752;BME280;27246;52.376;4.628;2022-07-21T12:55:14;101682.44;;;19.83;93.97
24752;BME280;27246;52.376;4.628;2022-07-21T13:00:16;101692.09;;;19.87;94.71
24752;BME280;27246;52.376;4.628;2022-07-21T13:05:17;101691.94;;;20.07;92.74
24752;BME280;27246;52.376;4.628;2022-07-21T13:10:20;101701.97;;;19.90;92.37
24752;BME280;27246;52.376;4.628;2022-07-21T13:15:23;101704.31;;;19.93;92.63
24752;BME280;27246;52.376;4.628;2022-07-21T13:20:25;101716.66;;;20.10;87.53
24752;BME280;27246;52.376;4.628;2022-07-21T13:25:26;101733.13;;;20.25;85.03
24752;BME280;27246;52.376;4.628;2022-07-21T13:30:33;101738.94;;;20.24;83.49
24752;BME280;27246;52.376;4.628;2022-07-21T13:35:43;101751.09;;;21.23;75.91
24752;BME280;27246;52.376;4.628;2022-07-21T13:40:45;101763.13;;;20.68;78.32
24752;BME280;27246;52.376;4.628;2022-07-21T13:46:07;101771.97;;;20.65;78.38
24752;BME280;27246;52.376;4.628;2022-07-21T13:51:13;101781.53;;;20.26;80.00
24752;BME280;27246;52.376;4.628;2022-07-21T13:56:16;101785.25;;;20.51;79.02
24752;BME280;27246;52.376;4.628;2022-07-21T14:01:18;101793.06;;;20.68;78.54
24752;BME280;27246;52.376;4.628;2022-07-21T14:06:20;101798.41;;;20.44;79.55
24752;BME280;27246;52.376;4.628;2022-07-21T14:11:22;101803.75;;;20.77;76.12
24752;BME280;27246;52.376;4.628;2022-07-21T14:16:25;101818.56;;;20.60;75.70
24752;BME280;27246;52.376;4.628;2022-07-21T14:21:27;101818.72;;;20.01;78.77
24752;BME280;27246;52.376;4.628;2022-07-21T14:26:29;101823.84;;;20.04;79.49
24752;BME280;27246;52.376;4.628;2022-07-21T14:31:31;101827.94;;;20.65;75.83
24752;BME280;27246;52.376;4.628;2022-07-21T14:36:32;101834.81;;;20.44;75.95
24752;BME280;27246;52.376;4.628;2022-07-21T14:41:34;101843.06;;;20.64;75.16
24752;BME280;27246;52.376;4.628;2022-07-21T14:46:36;101845.31;;;20.49;75.88
24752;BME280;27246;52.376;4.628;2022-07-21T14:51:38;101856.19;;;20.32;75.41
24752;BME280;27246;52.376;4.628;2022-07-21T14:56:40;101852.16;;;20.60;73.93
24752;BME280;27246;52.376;4.628;2022-07-21T15:02:01;101869.31;;;19.93;78.08
24752;BME280;27246;52.376;4.628;2022-07-21T15:07:12;101882.28;;;19.81;78.19
24752;BME280;27246;52.376;4.628;2022-07-21T15:12:18;101880.50;;;19.86;78.21
24752;BME280;27246;52.376;4.628;2022-07-21T15:17:19;101892.81;;;19.78;77.27
24752;BME280;27246;52.376;4.628;2022-07-21T15:22:21;101889.63;;;19.62;77.73
24752;BME280;27246;52.376;4.628;2022-07-21T15:27:23;101884.91;;;19.62;77.57
24752;BME280;27246;52.376;4.628;2022-07-21T15:32:25;101912.44;;;19.65;77.35
24752;BME280;27246;52.376;4.628;2022-07-21T15:37:27;101910.75;;;19.44;77.22
24752;BME280;27246;52.376;4.628;2022-07-21T15:42:28;101908.78;;;19.65;75.93
24752;BME280;27246;52.376;4.628;2022-07-21T15:47:32;101922.75;;;19.51;76.78
24752;BME280;27246;52.376;4.628;2022-07-21T15:52:34;101911.38;;;19.39;78.05
24752;BME280;27246;52.376;4.628;2022-07-21T15:57:38;101916.50;;;19.56;75.37
24752;BME280;27246;52.376;4.628;2022-07-21T16:02:41;101903.84;;;19.47;76.85
24752;BME280;27246;52.376;4.628;2022-07-21T16:07:44;101910.53;;;19.39;76.02
24752;BME280;27246;52.376;4.628;2022-07-21T16:12:45;101910.13;;;19.22;76.32
24752;BME280;27246;52.376;4.628;2022-07-21T16:17:48;101910.78;;;19.24;75.86
24752;BME280;27246;52.376;4.628;2022-07-21T16:22:50;101918.69;;;19.27;75.53
24752;BME280;27246;52.376;4.628;2022-07-21T16:27:52;101930.53;;;19.09;76.87
24752;BME280;27246;52.376;4.628;2022-07-21T16:32:54;101933.31;;;19.03;76.13
24752;BME280;27246;52.376;4.628;2022-07-21T16:37:55;101935.66;;;18.79;77.07
24752;BME280;27246;52.376;4.628;2022-07-21T16:42:59;101944.25;;;18.71;77.40
24752;BME280;27246;52.376;4.628;2022-07-21T16:48:00;101948.97;;;18.77;76.74
24752;BME280;27246;52.376;4.628;2022-07-21T16:53:02;101949.22;;;18.89;76.75
24752;BME280;27246;52.376;4.628;2022-07-21T16:58:04;101949.41;;;18.87;75.44
24752;BME280;27246;52.376;4.628;2022-07-21T17:03:05;101956.50;;;18.83;75.58
24752;BME280;27246;52.376;4.628;2022-07-21T17:08:07;101963.63;;;18.92;72.59
24752;BME280;27246;52.376;4.628;2022-07-21T17:13:09;101964.91;;;19.30;73.71
24752;BME280;27246;52.376;4.628;2022-07-21T17:18:10;101976.53;;;19.40;72.07
24752;BME280;27246;52.376;4.628;2022-07-21T17:23:12;101987.25;;;19.43;71.58
24752;BME280;27246;52.376;4.628;2022-07-21T17:28:16;101982.72;;;19.55;69.47
24752;BME280;27246;52.376;4.628;2022-07-21T17:33:18;101981.47;;;19.45;69.88
24752;BME280;27246;52.376;4.628;2022-07-21T17:38:20;101985.13;;;19.18;68.81
24752;BME280;27246;52.376;4.628;2022-07-21T17:43:22;101989.63;;;19.33;68.78
24752;BME280;27246;52.376;4.628;2022-07-21T17:48:23;101994.34;;;19.32;69.04
24752;BME280;27246;52.376;4.628;2022-07-21T17:53:25;102002.50;;;19.27;70.78
24752;BME280;27246;52.376;4.628;2022-07-21T17:58:26;102001.84;;;18.98;72.61
24752;BME280;27246;52.376;4.628;2022-07-21T18:03:46;102012.38;;;19.30;72.95
24752;BME280;27246;52.376;4.628;2022-07-21T18:08:49;102015.22;;;19.36;72.49
24752;BME280;27246;52.376;4.628;2022-07-21T18:13:51;102017.28;;;18.81;76.75
24752;BME280;27246;52.376;4.628;2022-07-21T18:18:53;102025.34;;;18.63;78.42
24752;BME280;27246;52.376;4.628;2022-07-21T18:23:56;102019.75;;;18.49;80.13
24752;BME280;27246;52.376;4.628;2022-07-21T18:28:59;102025.94;;;18.45;79.69
24752;BME280;27246;52.376;4.628;2022-07-21T18:34:03;102024.84;;;18.39;79.78
24752;BME280;27246;52.376;4.628;2022-07-21T18:39:04;102025.91;;;18.38;78.39
24752;BME280;27246;52.376;4.628;2022-07-21T18:44:12;102023.13;;;18.38;78.56
24752;BME280;27246;52.376;4.628;2022-07-21T18:49:16;102024.81;;;18.32;78.84
24752;BME280;27246;52.376;4.628;2022-07-21T18:54:17;102032.91;;;18.21;80.86
24752;BME280;27246;52.376;4.628;2022-07-21T18:59:19;102034.63;;;18.22;81.14
24752;BME280;27246;52.376;4.628;2022-07-21T19:04:25;102039.19;;;18.29;80.77
24752;BME280;27246;52.376;4.628;2022-07-21T19:09:26;102047.06;;;18.19;80.41
24752;BME280;27246;52.376;4.628;2022-07-21T19:14:28;102051.41;;;18.35;80.39
24752;BME280;27246;52.376;4.628;2022-07-21T19:19:30;102045.53;;;18.65;78.13
24752;BME280;27246;52.376;4.628;2022-07-21T19:24:32;102055.38;;;18.47;78.19
24752;BME280;27246;52.376;4.628;2022-07-21T19:29:33;102051.50;;;18.48;77.90
24752;BME280;27246;52.376;4.628;2022-07-21T19:34:35;102058.00;;;18.69;76.62
24752;BME280;27246;52.376;4.628;2022-07-21T19:39:37;102053.81;;;18.86;74.11
24752;BME280;27246;52.376;4.628;2022-07-21T19:44:41;102066.00;;;18.72;73.81
24752;BME280;27246;52.376;4.628;2022-07-21T19:49:42;102064.63;;;18.54;74.33
24752;BME280;27246;52.376;4.628;2022-07-21T19:54:44;102070.00;;;18.56;74.48
24752;BME280;27246;52.376;4.628;2022-07-21T19:59:46;102074.94;;;18.61;73.98
24752;BME280;27246;52.376;4.628;2022-07-21T20:04:48;102076.84;;;18.53;73.42
24752;BME280;27246;52.376;4.628;2022-07-21T20:09:49;102078.75;;;18.94;72.41
24752;BME280;27246;52.376;4.628;2022-07-21T20:14:51;102077.00;;;18.93;71.35
24752;BME280;27246;52.376;4.628;2022-07-21T20:19:57;102086.75;;;18.63;71.78
24752;BME280;27246;52.376;4.628;2022-07-21T20:24:59;102085.59;;;18.37;72.17
24752;BME280;27246;52.376;4.628;2022-07-21T20:30:01;102069.50;;;18.39;72.17
24752;BME280;27246;52.376;4.628;2022-07-21T20:35:07;102070.50;;;18.73;71.05
24752;BME280;27246;52.376;4.628;2022-07-21T20:40:18;102085.91;;;18.62;70.58
24752;BME280;27246;52.376;4.628;2022-07-21T20:45:28;102078.91;;;18.38;70.88
24752;BME280;27246;52.376;4.628;2022-07-21T20:50:30;102078.53;;;18.41;70.63
24752;BME280;27246;52.376;4.628;2022-07-21T20:55:33;102085.69;;;18.22;71.01
24752;BME280;27246;52.376;4.628;2022-07-21T21:00:49;102098.16;;;18.26;70.23
24752;BME280;27246;52.376;4.628;2022-07-21T21:05:50;102083.59;;;18.31;69.81
24752;BME280;27246;52.376;4.628;2022-07-21T21:10:52;102075.59;;;18.63;69.47
24752;BME280;27246;52.376;4.628;2022-07-21T21:15:54;102086.88;;;18.41;68.43
24752;BME280;27246;52.376;4.628;2022-07-21T21:20:55;102088.78;;;18.34;68.54
24752;BME280;27246;52.376;4.628;2022-07-21T21:25:57;102088.13;;;18.38;68.34
24752;BME280;27246;52.376;4.628;2022-07-21T21:30:59;102098.78;;;18.22;67.34
24752;BME280;27246;52.376;4.628;2022-07-21T21:36:02;102100.50;;;18.23;66.37
24752;BME280;27246;52.376;4.628;2022-07-21T21:41:04;102093.03;;;18.30;65.44
24752;BME280;27246;52.376;4.628;2022-07-21T21:46:06;102101.56;;;18.22;64.99
24752;BME280;27246;52.376;4.628;2022-07-21T21:51:13;102114.84;;;18.13;64.32
24752;BME280;27246;52.376;4.628;2022-07-21T21:56:15;102112.63;;;18.08;63.87
24752;BME280;27246;52.376;4.628;2022-07-21T22:01:17;102111.22;;;18.19;64.27
24752;BME280;27246;52.376;4.628;2022-07-21T22:06:18;102111.00;;;18.21;65.34
24752;BME280;27246;52.376;4.628;2022-07-21T22:11:20;102109.69;;;18.16;66.35
24752;BME280;27246;52.376;4.628;2022-07-21T22:16:22;102110.75;;;18.15;67.20
24752;BME280;27246;52.376;4.628;2022-07-21T22:21:23;102099.09;;;18.40;67.40
24752;BME280;27246;52.376;4.628;2022-07-21T22:26:30;102107.19;;;18.28;67.89
24752;BME280;27246;52.376;4.628;2022-07-21T22:31:32;102102.41;;;18.15;68.49
24752;BME280;27246;52.376;4.628;2022-07-21T22:36:34;102099.00;;;18.27;68.23
24752;BME280;27246;52.376;4.628;2022-07-21T22:41:35;102101.13;;;18.18;68.41
24752;BME280;27246;52.376;4.628;2022-07-21T22:46:37;102096.00;;;18.22;68.24
24752;BME280;27246;52.376;4.628;2022-07-21T22:51:39;102106.69;;;18.18;67.77
24752;BME280;27246;52.376;4.628;2022-07-21T22:56:40;102109.84;;;18.08;67.95
24752;BME280;27246;52.376;4.628;2022-07-21T23:01:44;102098.94;;;18.13;67.58
24752;BME280;27246;52.376;4.628;2022-07-21T23:06:45;102102.94;;;18.04;67.26
24752;BME280;27246;52.376;4.628;2022-07-21T23:11:47;102109.19;;;18.06;66.70
24752;BME280;27246;52.376;4.628;2022-07-21T23:16:49;102103.53;;;17.93;66.32
24752;BME280;27246;52.376;4.628;2022-07-21T23:21:51;102104.44;;;18.00;66.10
24752;BME280;27246;52.376;4.628;2022-07-21T23:26:52;102099.19;;;17.90;66.29
24752;BME280;27246;52.376;4.628;2022-07-21T23:31:54;102101.41;;;17.95;66.75
24752;BME280;27246;52.376;4.628;2022-07-21T23:36:56;102098.34;;;17.90;67.20
24752;BME280;27246;52.376;4.628;2022-07-21T23:41:57;102092.41;;;17.99;67.34
24752;BME280;27246;52.376;4.628;2022-07-21T23:46:59;102102.72;;;17.99;67.80
24752;BME280;27246;52.376;4.628;2022-07-21T23:52:01;102090.91;;;17.97;68.00
24752;BME280;27246;52.376;4.628;2022-07-21T23:57:02;102100.75;;;17.93;68.25
